createdAt,value
2022-08-21T00:01:51.715Z,3.10
2022-08-21T00:04:22.066Z,3.83
2022-08-21T00:06:50.668Z,2.63
2022-08-21T00:09:18.391Z,6.43
2022-08-21T00:11:45.600Z,2.15
2022-08-21T00:14:15.496Z,4.43
2022-08-21T00:16:42.753Z,2.88
2022-08-21T00:19:10.000Z,3.67
2022-08-21T00:21:37.258Z,3.35
2022-08-21T00:24:04.349Z,4.60
2022-08-21T00:26:31.187Z,3.53
2022-08-21T00:28:58.925Z,4.25
2022-08-21T00:31:26.307Z,4.03
2022-08-21T00:33:53.189Z,3.22
2022-08-21T00:36:27.893Z,5.68
2022-08-21T00:38:54.752Z,2.72
2022-08-21T00:41:37.419Z,2.95
2022-08-21T00:44:10.221Z,2.97
2022-08-21T00:46:38.672Z,6.32
2022-08-21T00:49:07.300Z,3.50
2022-08-21T00:51:52.106Z,6.13
2022-08-21T00:54:21.600Z,3.38
2022-08-21T00:57:00.036Z,2.45
2022-08-21T00:59:30.478Z,2.10
2022-08-21T01:01:57.507Z,3.08
2022-08-21T01:04:25.007Z,3.47
2022-08-21T01:06:52.589Z,3.88
2022-08-21T01:09:20.043Z,2.83
2022-08-21T01:11:47.622Z,2.17
2022-08-21T01:14:15.457Z,4.30
2022-08-21T01:16:45.842Z,4.28
2022-08-21T01:19:14.837Z,3.97
2022-08-21T01:21:42.009Z,2.90
2022-08-21T01:24:11.740Z,4.47
2022-08-21T01:26:38.625Z,3.20
2022-08-21T01:29:11.092Z,2.55
2022-08-21T01:31:38.886Z,4.22
2022-08-21T01:34:06.120Z,3.05
2022-08-21T01:36:33.528Z,4.90
2022-08-21T01:39:00.586Z,2.92
2022-08-21T01:41:27.459Z,4.18
2022-08-21T01:43:54.273Z,3.58
2022-08-21T01:46:21.472Z,6.55
2022-08-21T01:48:48.402Z,3.22
2022-08-21T01:51:15.287Z,3.90
2022-08-21T01:53:42.227Z,2.53
2022-08-21T01:56:12.750Z,2.83
2022-08-21T01:58:42.497Z,3.28
2022-08-21T02:01:10.499Z,2.13
2022-08-21T02:03:37.987Z,3.25
2022-08-21T02:06:06.635Z,4.00
2022-08-21T02:08:33.685Z,4.45
2022-08-21T02:11:01.254Z,3.38
2022-08-21T02:13:28.138Z,3.03
2022-08-21T02:15:54.980Z,2.55
2022-08-21T02:18:22.025Z,3.22
2022-08-21T02:20:54.207Z,2.97
2022-08-21T02:23:26.797Z,3.38
2022-08-21T02:25:56.443Z,2.47
2022-08-21T02:28:23.437Z,3.63
2022-08-21T02:30:51.603Z,4.03
2022-08-21T02:33:19.796Z,2.28
2022-08-21T02:35:48.886Z,3.58
2022-08-21T02:38:19.780Z,3.10
2022-08-21T02:40:51.027Z,3.80
2022-08-21T02:43:19.737Z,2.25
2022-08-21T02:45:47.670Z,2.17
2022-08-21T02:48:21.784Z,4.05
2022-08-21T02:50:55.059Z,3.67
2022-08-21T02:53:22.935Z,3.78
2022-08-21T02:55:51.632Z,5.60
2022-08-21T02:58:24.528Z,3.53
2022-08-21T03:00:52.320Z,2.95
2022-08-21T03:03:19.361Z,3.30
2022-08-21T03:05:46.207Z,3.10
2022-08-21T03:08:15.453Z,2.90
2022-08-21T03:10:45.964Z,5.30
2022-08-21T03:13:14.985Z,4.13
2022-08-21T03:15:42.450Z,4.47
2022-08-21T03:18:10.344Z,3.25
2022-08-21T03:20:38.782Z,5.15
2022-08-21T03:23:12.730Z,3.05
2022-08-21T03:25:42.017Z,3.10
2022-08-21T03:28:13.130Z,4.97
2022-08-21T03:30:42.269Z,4.70
2022-08-21T03:33:12.337Z,3.75
2022-08-21T03:35:41.440Z,3.70
2022-08-21T03:38:08.720Z,3.65
2022-08-21T03:40:35.909Z,3.53
2022-08-21T03:43:02.765Z,2.75
2022-08-21T03:45:30.206Z,3.25
2022-08-21T03:48:00.675Z,3.15
2022-08-21T03:50:40.625Z,3.95
2022-08-21T03:53:08.506Z,3.42
2022-08-21T03:55:48.897Z,3.15
2022-08-21T03:58:17.900Z,3.47
2022-08-21T04:00:50.908Z,4.50
2022-08-21T04:03:19.581Z,4.80
2022-08-21T04:05:46.987Z,2.97
2022-08-21T04:08:15.385Z,3.42
2022-08-21T04:10:44.270Z,3.60
2022-08-21T04:13:11.086Z,3.75
2022-08-21T04:15:38.035Z,3.63
2022-08-21T04:18:06.479Z,3.13
2022-08-21T04:20:34.315Z,5.35
2022-08-21T04:23:01.995Z,5.00
2022-08-21T04:25:29.193Z,5.38
2022-08-21T04:27:56.390Z,5.55
2022-08-21T04:30:28.165Z,5.43
2022-08-21T04:32:57.350Z,5.32
2022-08-21T04:35:25.796Z,4.88
2022-08-21T04:37:52.830Z,4.90
2022-08-21T04:40:21.565Z,4.32
2022-08-21T04:42:54.946Z,4.43
2022-08-21T04:45:26.705Z,3.78
2022-08-21T04:47:55.909Z,4.00
2022-08-21T04:50:27.623Z,6.43
2022-08-21T04:52:55.199Z,6.13
2022-08-21T04:55:23.878Z,3.80
2022-08-21T04:57:52.438Z,5.75
2022-08-21T05:00:20.008Z,4.35
2022-08-21T05:02:51.070Z,3.53
2022-08-21T05:05:18.197Z,4.97
2022-08-21T05:07:46.174Z,4.15
2022-08-21T05:10:15.021Z,6.68
2022-08-21T05:12:43.907Z,4.47
2022-08-21T05:15:14.803Z,4.03
2022-08-21T05:17:42.697Z,4.82
2022-08-21T05:20:11.490Z,3.25
2022-08-21T05:22:39.350Z,4.70
2022-08-21T05:25:10.435Z,5.72
2022-08-21T05:27:39.349Z,4.25
2022-08-21T05:30:10.122Z,2.83
2022-08-21T05:32:37.740Z,5.43
2022-08-21T05:35:07.004Z,4.32
2022-08-21T05:37:34.788Z,4.35
2022-08-21T05:40:20.029Z,5.65
2022-08-21T05:42:54.765Z,3.97
2022-08-21T05:45:43.368Z,5.38
2022-08-21T05:48:14.806Z,6.20
2022-08-21T05:50:42.625Z,6.07
2022-08-21T05:53:10.809Z,4.85
2022-08-21T05:55:42.755Z,11.65
2022-08-21T05:58:13.054Z,4.78
2022-08-21T06:00:40.477Z,8.57
2022-08-21T06:03:13.306Z,3.50
2022-08-21T06:05:40.164Z,5.75
2022-08-21T06:08:06.983Z,5.28
2022-08-21T06:10:33.915Z,3.85
2022-08-21T06:13:00.840Z,4.78
2022-08-21T06:15:28.328Z,4.20
2022-08-21T06:17:55.918Z,4.05
2022-08-21T06:20:23.020Z,5.00
2022-08-21T06:22:50.133Z,4.88
2022-08-21T06:25:17.028Z,5.85
2022-08-21T06:27:44.036Z,3.80
2022-08-21T06:30:11.653Z,5.13
2022-08-21T06:32:38.963Z,4.70
2022-08-21T06:35:07.134Z,8.07
2022-08-21T06:37:34.229Z,4.25
2022-08-21T06:40:01.338Z,4.93
2022-08-21T06:42:31.115Z,3.78
2022-08-21T07:34:04.838Z,6.50
2022-08-21T07:36:35.161Z,5.30
2022-08-21T15:31:26.795Z,4.97
2022-08-21T15:33:53.569Z,2.15
2022-08-21T15:36:20.646Z,4.05
2022-08-21T15:38:47.511Z,4.20
2022-08-21T15:41:15.134Z,3.22
2022-08-21T15:43:51.399Z,3.67
2022-08-21T15:46:20.843Z,2.92
2022-08-21T15:48:48.379Z,2.75
2022-08-21T15:51:17.119Z,4.57
2022-08-21T15:53:44.862Z,5.32
2022-08-21T15:56:36.109Z,3.42
2022-08-21T15:59:07.448Z,3.30
2022-08-21T16:01:44.612Z,3.65
2022-08-21T16:04:19.429Z,5.85
2022-08-21T16:06:54.189Z,3.17
2022-08-21T16:09:23.866Z,3.55
2022-08-21T16:11:51.510Z,6.53
2022-08-21T16:14:18.396Z,6.07
2022-08-21T16:16:45.680Z,4.70
2022-08-21T16:19:14.448Z,4.70
2022-08-21T16:21:41.698Z,4.07
2022-08-21T16:24:08.659Z,4.25
2022-08-21T16:26:35.627Z,3.65
2022-08-21T16:29:04.379Z,2.60
2022-08-21T16:31:32.382Z,4.65
2022-08-21T16:33:59.992Z,4.07
2022-08-21T16:36:27.411Z,4.00
2022-08-21T16:38:56.185Z,5.85
2022-08-21T16:41:24.764Z,3.75
2022-08-21T16:43:52.596Z,3.65
2022-08-21T16:46:21.422Z,3.78
2022-08-21T16:48:48.426Z,3.53
2022-08-21T16:51:16.097Z,5.35
2022-08-21T16:53:43.759Z,3.05
2022-08-21T16:56:13.487Z,4.32
2022-08-21T16:58:47.543Z,4.53
2022-08-21T17:01:17.627Z,3.47
2022-08-21T17:03:47.532Z,5.15
2022-08-21T17:06:15.811Z,2.95
2022-08-21T17:08:43.234Z,2.60
2022-08-21T17:11:36.727Z,5.10
2022-08-21T17:14:07.564Z,3.45
2022-08-21T17:16:34.866Z,4.32
2022-08-21T17:19:01.649Z,3.20
2022-08-21T17:21:28.468Z,4.35
2022-08-21T17:23:55.320Z,4.05
2022-08-21T17:26:23.063Z,4.85
2022-08-21T17:28:54.208Z,3.42
2022-08-21T17:31:21.625Z,5.30
2022-08-21T17:33:52.801Z,4.63
2022-08-21T17:36:25.729Z,4.93
2022-08-21T17:38:52.967Z,4.45
2022-08-21T17:41:21.154Z,3.53
2022-08-21T17:43:48.217Z,4.45
2022-08-21T17:46:19.746Z,4.15
2022-08-21T17:51:15.168Z,5.82
2022-08-21T17:53:42.617Z,5.57
2022-08-21T17:56:09.759Z,6.07
2022-08-21T17:58:38.037Z,5.57
2022-08-21T18:01:08.014Z,4.30
2022-08-21T18:03:37.264Z,4.22
2022-08-21T18:06:06.340Z,5.23
2022-08-21T18:08:33.700Z,4.47
2022-08-21T18:11:01.502Z,4.45
2022-08-21T18:13:35.056Z,5.55
2022-08-21T18:16:02.816Z,3.28
2022-08-21T18:18:34.155Z,4.05
2022-08-21T18:21:00.968Z,5.25
2022-08-21T18:23:43.933Z,4.32
2022-08-21T18:26:14.641Z,7.45
2022-08-21T18:28:41.978Z,4.82
2022-08-21T18:31:11.063Z,5.93
2022-08-21T18:33:38.975Z,5.85
2022-08-21T18:36:06.352Z,5.05
2022-08-21T18:38:33.107Z,7.80
2022-08-21T18:41:00.009Z,4.07
2022-08-21T18:43:27.134Z,4.40
2022-08-21T18:45:54.505Z,7.15
2022-08-21T18:48:21.443Z,9.52
2022-08-21T18:50:56.146Z,11.68
2022-08-21T18:53:27.930Z,13.45
2022-08-21T18:55:57.932Z,11.68
2022-08-21T18:58:32.216Z,9.57
2022-08-21T19:00:59.114Z,15.18
2022-08-21T19:03:26.022Z,7.72
2022-08-21T19:05:54.357Z,8.65
2022-08-21T19:08:23.720Z,7.50
2022-08-21T19:10:54.993Z,5.75
2022-08-21T19:13:22.726Z,3.72
2022-08-21T19:15:53.006Z,6.45
2022-08-21T19:18:28.355Z,5.50
2022-08-21T19:20:57.449Z,4.93
2022-08-21T19:23:29.351Z,5.97
2022-08-21T19:26:00.805Z,4.05
2022-08-21T19:28:35.516Z,5.57
2022-08-21T19:31:24.902Z,5.47
2022-08-21T19:34:01.797Z,7.10
2022-08-21T19:36:30.072Z,5.13
2022-08-21T19:38:57.421Z,7.20
2022-08-21T19:41:28.468Z,4.57
2022-08-21T19:43:58.275Z,5.47
2022-08-21T19:46:31.701Z,6.10
2022-08-21T19:48:59.640Z,5.78
2022-08-21T19:51:27.662Z,5.88
2022-08-21T19:53:57.168Z,5.70
2022-08-21T19:56:26.976Z,5.63
2022-08-21T19:58:54.797Z,4.57
2022-08-21T20:01:23.981Z,6.25
2022-08-21T20:06:38.949Z,9.15
2022-08-21T20:09:08.399Z,5.40
2022-08-21T20:11:51.775Z,9.00
2022-08-21T20:14:23.604Z,5.28
2022-08-21T20:19:20.631Z,7.63
2022-08-21T20:21:47.751Z,5.65
2022-08-21T20:24:15.449Z,7.93
2022-08-21T20:26:49.545Z,8.02
2022-08-21T20:29:39.004Z,11.68
2022-08-21T20:32:08.040Z,9.13
2022-08-21T20:34:39.913Z,8.00
2022-08-21T20:37:06.753Z,10.35
2022-08-21T20:39:36.436Z,7.75
2022-08-21T20:42:07.033Z,7.20
2022-08-21T20:44:35.560Z,6.65
2022-08-21T20:47:08.905Z,5.85
2022-08-21T20:49:46.619Z,5.85
2022-08-21T20:52:15.962Z,7.20
2022-08-21T20:54:51.556Z,8.43
2022-08-21T20:57:43.918Z,10.00
2022-08-21T21:00:15.085Z,5.85
2022-08-21T21:02:48.648Z,6.32
2022-08-21T21:05:21.478Z,8.13
2022-08-21T21:07:57.749Z,8.55
2022-08-21T21:10:44.901Z,8.32
2022-08-21T21:13:21.551Z,6.47
2022-08-21T21:15:54.390Z,7.07
2022-08-21T21:18:31.457Z,5.10
2022-08-21T21:21:07.350Z,6.13
2022-08-21T21:23:56.415Z,7.28
